createdAt,value
2022-10-11T00:02:18.229Z,100267.97
2022-10-11T00:04:56.386Z,100267.91
2022-10-11T00:07:34.751Z,100260.94
2022-10-11T00:10:13.604Z,100264.44
2022-10-11T00:12:53.090Z,100265.38
2022-10-11T00:15:31.434Z,100271.47
2022-10-11T00:18:11.630Z,100256.63
2022-10-11T00:20:50.076Z,100255.75
2022-10-11T00:23:29.608Z,100250.63
2022-10-11T00:26:09.617Z,100250.69
2022-10-11T00:28:52.177Z,100249.72
2022-10-11T00:31:35.488Z,100243.56
2022-10-11T00:34:15.817Z,100247.06
2022-10-11T00:36:54.186Z,100248.00
2022-10-11T00:39:32.617Z,100242.88
2022-10-11T00:42:13.324Z,100241.16
2022-10-11T00:44:52.437Z,100243.84
2022-10-11T00:47:30.841Z,100243.91
2022-10-11T00:50:11.068Z,100243.06
2022-10-11T00:52:53.534Z,100242.22
2022-10-11T00:55:37.552Z,100243.97
2022-10-11T00:58:17.706Z,100249.19
2022-10-11T01:00:57.190Z,100236.09
2022-10-11T01:04:01.881Z,100232.63
2022-10-11T01:06:41.712Z,100233.53
2022-10-11T01:09:21.406Z,100238.84
2022-10-11T01:12:03.059Z,100226.63
2022-10-11T01:15:05.616Z,100230.16
2022-10-11T01:18:03.711Z,100224.00
2022-10-11T01:20:46.278Z,100241.59
2022-10-11T01:23:43.899Z,100232.00
2022-10-11T01:26:32.569Z,100227.69
2022-10-11T01:29:13.907Z,100231.25
2022-10-11T01:31:54.259Z,100234.81
2022-10-11T01:34:52.687Z,100232.19
2022-10-11T01:37:39.280Z,100230.41
2022-10-11T01:40:43.990Z,100233.94
2022-10-11T01:43:24.140Z,100236.63
2022-10-11T01:46:04.321Z,100232.31
2022-10-11T01:48:49.247Z,100235.78
2022-10-11T01:51:30.509Z,100229.66
2022-10-11T01:54:35.226Z,100228.75
2022-10-11T01:57:46.871Z,100230.53
2022-10-11T02:00:29.433Z,100235.78
2022-10-11T02:03:37.887Z,100232.28
2022-10-11T02:06:23.306Z,100226.13
2022-10-11T02:09:14.672Z,100228.75
2022-10-11T02:11:56.984Z,100229.66
2022-10-11T02:14:39.562Z,100237.63
2022-10-11T02:17:20.274Z,100238.56
2022-10-11T02:20:04.028Z,100237.72
2022-10-11T02:22:45.706Z,100237.81
2022-10-11T02:25:24.338Z,100232.56
2022-10-11T02:28:04.077Z,100236.16
2022-10-11T02:30:45.184Z,100230.09
2022-10-11T02:33:27.147Z,100238.88
2022-10-11T02:36:13.499Z,100234.56
2022-10-11T02:38:54.978Z,100237.19
2022-10-11T02:41:36.716Z,100237.25
2022-10-11T02:44:24.045Z,100228.53
2022-10-11T02:47:04.118Z,100241.66
2022-10-11T02:49:42.854Z,100239.91
2022-10-11T02:52:22.762Z,100248.72
2022-10-11T02:55:01.081Z,100244.34
2022-10-11T02:57:39.476Z,100243.50
2022-10-11T03:00:17.785Z,100242.63
2022-10-11T03:02:53.942Z,100233.00
2022-10-11T03:05:37.301Z,100244.41
2022-10-11T03:08:16.605Z,100231.28
2022-10-11T03:10:53.850Z,100238.34
2022-10-11T03:13:30.505Z,100245.31
2022-10-11T03:16:09.727Z,100239.28
2022-10-11T03:18:49.323Z,100238.44
2022-10-11T03:21:27.682Z,100233.19
2022-10-11T03:24:06.158Z,100234.94
2022-10-11T03:26:45.913Z,100233.19
2022-10-11T03:29:24.300Z,100232.31
2022-10-11T03:32:03.146Z,100231.47
2022-10-11T03:34:42.626Z,100227.09
2022-10-11T03:37:20.970Z,100232.38
2022-10-11T03:40:01.411Z,100229.81
2022-10-11T03:42:41.281Z,100222.78
2022-10-11T03:45:22.632Z,100217.59
2022-10-11T03:48:02.877Z,100217.59
2022-10-11T03:50:42.392Z,100221.13
2022-10-11T03:53:20.660Z,100213.22
2022-10-11T03:55:59.032Z,100208.81
2022-10-11T03:58:37.314Z,100211.41
2022-10-11T04:01:15.716Z,100206.16
2022-10-11T04:04:18.171Z,100201.75
2022-10-11T04:06:56.362Z,100220.97
2022-10-11T04:09:32.650Z,100207.81
2022-10-11T04:12:09.427Z,100205.19
2022-10-11T04:14:48.207Z,100212.25
2022-10-11T04:17:26.773Z,100207.88
2022-10-11T04:20:07.339Z,100213.13
2022-10-11T04:22:46.501Z,100212.22
2022-10-11T04:25:24.862Z,100213.91
2022-10-11T04:28:03.416Z,100211.19
2022-10-11T04:30:41.482Z,100213.81
2022-10-11T04:33:19.878Z,100205.00
2022-10-11T04:35:58.184Z,100212.84
2022-10-11T04:38:36.572Z,100209.28
2022-10-11T04:41:16.346Z,100208.31
2022-10-11T04:43:54.891Z,100209.13
2022-10-11T04:46:33.178Z,100208.94
2022-10-11T04:49:11.697Z,100213.28
2022-10-11T04:51:49.907Z,100203.53
2022-10-11T04:54:28.282Z,100207.88
2022-10-11T04:57:06.597Z,100209.56
2022-10-11T04:59:49.877Z,100101.63
2022-10-11T05:02:29.705Z,100202.22
2022-10-11T05:05:08.256Z,100209.63
2022-10-11T05:07:46.325Z,100212.44
2022-10-11T05:10:24.738Z,100203.59
2022-10-11T05:13:03.072Z,100208.47
2022-10-11T05:15:41.438Z,100204.94
2022-10-11T05:18:19.801Z,100214.47
2022-10-11T05:21:06.077Z,100212.34
2022-10-11T05:23:45.177Z,100216.84
2022-10-11T05:26:22.334Z,100217.34
2022-10-11T05:29:01.298Z,100216.41
2022-10-11T05:31:39.505Z,100212.75
2022-10-11T05:34:17.821Z,100204.44
2022-10-11T05:36:56.954Z,100207.03
2022-10-11T05:39:36.179Z,100201.44
2022-10-11T05:42:14.653Z,100205.91
2022-10-11T05:44:52.807Z,100198.66
2022-10-11T05:47:31.228Z,100196.06
2022-10-11T05:50:09.782Z,100209.31
2022-10-11T05:52:47.854Z,100206.75
2022-10-11T05:55:27.902Z,100217.50
2022-10-11T05:58:06.758Z,100217.59
2022-10-11T06:00:46.105Z,100212.28
2022-10-11T06:03:24.687Z,100214.72
2022-10-11T06:06:05.370Z,100202.22
2022-10-11T06:08:45.005Z,100212.94
2022-10-11T06:11:26.249Z,100207.25
2022-10-11T06:14:45.817Z,100208.00
2022-10-11T06:17:41.357Z,100208.94
2022-10-11T06:20:38.070Z,100204.75
2022-10-11T06:23:30.702Z,100204.56
2022-10-11T06:26:26.716Z,100203.06
2022-10-11T06:29:22.750Z,100208.53
2022-10-11T06:32:27.406Z,100196.72
2022-10-11T06:35:24.285Z,100207.66
2022-10-11T06:38:16.680Z,100207.63
2022-10-11T06:41:10.480Z,100206.44
2022-10-11T06:44:08.732Z,100201.50
2022-10-11T06:47:05.421Z,100201.66
2022-10-11T06:50:00.729Z,100195.97
2022-10-11T06:52:56.804Z,100201.78
2022-10-11T06:56:09.015Z,100189.41
2022-10-11T06:59:03.724Z,100198.72
2022-10-11T07:01:56.915Z,100193.50
2022-10-11T07:04:49.666Z,100197.03
2022-10-11T07:07:26.647Z,100194.31
2022-10-11T07:10:35.570Z,100202.03
2022-10-11T07:13:28.074Z,100201.00
2022-10-11T07:16:36.714Z,100201.53
2022-10-11T07:19:34.547Z,100203.63
2022-10-11T07:22:27.598Z,100191.72
2022-10-11T07:25:23.483Z,100196.56
2022-10-11T07:28:15.816Z,100199.75
2022-10-11T07:31:14.035Z,100197.00
2022-10-11T07:34:07.587Z,100191.22
2022-10-11T07:37:09.082Z,100191.75
2022-10-11T07:40:01.056Z,100190.63
2022-10-11T07:42:53.955Z,100189.13
2022-10-11T07:46:04.597Z,100188.06
2022-10-11T07:49:00.647Z,100179.91
2022-10-11T07:51:57.815Z,100179.94
2022-10-11T07:54:53.876Z,100178.59
2022-10-11T07:57:49.106Z,100181.38
2022-10-11T08:00:42.478Z,100170.44
2022-10-11T08:03:19.373Z,100174.47
2022-10-11T08:06:13.534Z,100167.41
2022-10-11T08:09:10.485Z,100167.81
2022-10-11T08:12:03.773Z,100164.50
2022-10-11T08:15:02.286Z,100163.50
2022-10-11T08:18:07.266Z,100164.09
2022-10-11T08:21:18.985Z,100155.06
2022-10-11T08:24:14.444Z,100156.47
2022-10-11T08:27:06.162Z,100155.00
2022-10-11T08:30:01.324Z,100148.28
2022-10-11T08:32:54.491Z,100149.72
2022-10-11T08:35:57.444Z,100147.72
2022-10-11T08:39:07.894Z,100145.88
2022-10-11T08:42:28.704Z,100140.78
2022-10-11T08:45:31.106Z,100136.41
2022-10-11T08:48:37.425Z,100142.91
2022-10-11T08:51:35.581Z,100136.03
2022-10-11T08:54:31.551Z,100127.59
2022-10-11T08:57:32.218Z,100127.00
2022-10-11T09:00:28.607Z,100125.22
2022-10-11T09:03:19.653Z,100115.56
2022-10-11T09:06:16.148Z,100124.94
2022-10-11T09:08:55.623Z,100113.88
2022-10-11T09:11:34.523Z,100111.28
2022-10-11T09:14:31.545Z,100112.47
2022-10-11T09:17:16.780Z,100109.94
2022-10-11T09:19:49.767Z,100107.56
2022-10-11T09:22:30.794Z,100102.13
2022-10-11T09:24:58.129Z,100099.59
2022-10-11T09:28:01.899Z,100086.72
2022-10-11T09:30:30.149Z,100092.63
2022-10-11T09:32:59.891Z,100081.50
2022-10-11T09:35:28.519Z,100083.75
2022-10-11T09:37:55.493Z,100076.94
2022-10-11T09:40:28.693Z,100076.53
2022-10-11T09:42:55.766Z,100070.97
2022-10-11T09:45:22.926Z,100063.34
2022-10-11T09:47:52.648Z,100059.56
2022-10-11T09:50:26.025Z,100060.34
2022-10-11T09:52:55.093Z,100061.06
2022-10-11T09:55:33.308Z,100059.81
2022-10-11T09:58:00.506Z,100058.25
2022-10-11T10:00:28.613Z,100057.84
2022-10-11T10:02:59.735Z,100058.63
2022-10-11T10:05:31.134Z,100055.38
2022-10-11T10:08:04.544Z,100050.78
2022-10-11T10:10:34.605Z,100042.44
2022-10-11T10:13:03.747Z,100046.75
2022-10-11T10:15:35.182Z,100049.59
2022-10-11T10:18:02.886Z,100053.44
2022-10-11T10:20:34.366Z,100052.00
2022-10-11T10:23:21.418Z,99997.00
2022-10-11T10:25:52.307Z,100046.75
2022-10-11T10:28:21.906Z,100032.59
2022-10-11T10:30:58.983Z,100033.13
2022-10-11T10:33:27.369Z,100030.00
2022-10-11T10:35:56.893Z,100026.91
2022-10-11T10:38:27.345Z,100030.09
2022-10-11T10:40:59.002Z,100020.06
2022-10-11T10:43:27.901Z,100011.06
2022-10-11T10:46:00.857Z,100016.75
2022-10-11T10:48:53.788Z,100010.81
2022-10-11T10:51:26.389Z,100012.00
2022-10-11T10:54:03.148Z,100006.69
2022-10-11T10:56:36.994Z,99998.69
2022-10-11T10:59:04.143Z,99998.41
2022-10-11T11:01:32.777Z,99993.03
2022-10-11T11:03:59.894Z,99995.53
2022-10-11T11:06:42.224Z,99993.69
2022-10-11T11:09:28.136Z,99995.47
2022-10-11T11:12:01.947Z,99989.78
2022-10-11T11:14:34.949Z,99991.06
2022-10-11T11:17:07.995Z,99984.56
2022-10-11T11:19:53.810Z,99978.16
2022-10-11T11:22:23.882Z,99977.03
2022-10-11T11:25:12.849Z,99976.31
2022-10-11T11:27:43.978Z,99980.25
2022-10-11T11:30:13.964Z,99975.75
2022-10-11T11:32:59.703Z,99967.00
2022-10-11T11:35:33.467Z,99962.69
2022-10-11T11:38:28.570Z,99962.09
2022-10-11T11:41:02.754Z,99955.88
2022-10-11T11:43:38.455Z,99952.13
2022-10-11T11:46:10.488Z,99951.50
2022-10-11T11:48:37.735Z,99947.47
2022-10-11T11:51:26.518Z,99950.25
2022-10-11T11:54:13.067Z,99942.84
2022-10-11T11:56:52.205Z,99941.84
2022-10-11T11:59:28.204Z,99936.50
2022-10-11T12:02:04.102Z,99940.06
2022-10-11T12:04:34.473Z,99940.16
2022-10-11T12:07:17.806Z,99941.19
2022-10-11T12:09:50.786Z,99926.94
2022-10-11T12:12:28.026Z,99916.06
2022-10-11T12:15:10.328Z,99923.75
2022-10-11T12:18:01.337Z,99918.25
2022-10-11T12:20:31.691Z,99917.09
2022-10-11T12:23:00.608Z,99912.50
2022-10-11T12:25:28.703Z,99912.66
2022-10-11T12:27:57.024Z,99920.09
2022-10-11T12:30:42.590Z,99908.91
2022-10-11T12:33:23.753Z,99910.69
2022-10-11T12:35:53.632Z,99907.19
2022-10-11T12:38:42.045Z,99903.75
2022-10-11T12:41:09.146Z,99901.44
2022-10-11T12:43:48.277Z,99903.28
2022-10-11T12:46:31.271Z,99890.31
2022-10-11T12:49:01.429Z,99900.25
2022-10-11T12:51:48.638Z,99889.72
2022-10-11T12:54:26.767Z,99895.91
2022-10-11T12:56:54.270Z,99893.34
2022-10-11T12:59:24.939Z,99896.16
2022-10-11T13:01:54.327Z,99893.44
2022-10-11T13:04:24.695Z,99896.09
2022-10-11T13:07:07.706Z,99891.66
2022-10-11T13:09:39.413Z,99881.34
2022-10-11T13:12:08.522Z,99875.25
2022-10-11T13:14:37.995Z,99877.19
2022-10-11T13:17:28.060Z,99880.03
2022-10-11T13:20:02.347Z,99877.22
2022-10-11T13:22:34.931Z,99877.03
2022-10-11T13:25:05.249Z,99871.78
2022-10-11T13:27:32.574Z,99871.88
2022-10-11T13:30:02.461Z,99871.88
2022-10-11T13:32:31.459Z,99870.88
2022-10-11T13:35:04.023Z,99872.72
2022-10-11T13:37:38.751Z,99873.72
2022-10-11T13:40:06.448Z,99871.97
2022-10-11T13:42:33.753Z,99869.41
2022-10-11T13:45:01.276Z,99874.84
2022-10-11T13:47:30.969Z,99868.91
2022-10-11T13:50:02.194Z,99874.38
2022-10-11T13:52:30.632Z,99869.16
2022-10-11T13:55:09.217Z,99869.28
2022-10-11T13:57:41.038Z,99758.44
2022-10-11T14:00:17.659Z,99872.34
2022-10-11T14:02:50.117Z,99870.88
2022-10-11T14:05:25.706Z,99872.19
2022-10-11T14:07:52.768Z,99871.53
2022-10-11T14:10:21.173Z,99879.63
2022-10-11T14:13:05.796Z,99871.91
2022-10-11T14:15:37.270Z,99875.59
2022-10-11T14:18:33.872Z,99873.97
2022-10-11T14:21:19.427Z,99869.88
2022-10-11T14:23:47.014Z,99870.06
2022-10-11T14:26:18.564Z,99870.25
2022-10-11T14:28:49.575Z,99839.38
2022-10-11T14:31:16.719Z,99874.19
2022-10-11T14:33:43.735Z,99863.81
2022-10-11T14:36:10.745Z,99869.31
2022-10-11T14:38:37.690Z,99879.34
2022-10-11T14:41:04.745Z,99873.44
2022-10-11T14:43:31.681Z,99879.88
2022-10-11T14:45:58.680Z,99881.00
2022-10-11T14:48:53.853Z,99875.16
2022-10-11T14:51:13.537Z,99879.75
2022-10-11T14:53:46.249Z,99880.03
2022-10-11T14:56:17.715Z,99882.88
2022-10-11T14:58:47.388Z,99883.00
2022-10-11T15:01:14.939Z,99882.38
2022-10-11T15:03:42.381Z,99883.56
2022-10-11T15:06:21.251Z,99887.25
2022-10-11T15:08:48.264Z,99892.75
2022-10-11T15:11:16.778Z,99887.69
2022-10-11T15:13:43.963Z,99891.34
2022-10-11T15:16:12.245Z,99890.63
2022-10-11T15:18:39.598Z,99885.53
2022-10-11T15:21:06.745Z,99890.94
2022-10-11T15:23:33.814Z,99888.44
2022-10-11T15:26:00.841Z,99892.09
2022-10-11T15:28:29.923Z,99887.78
2022-10-11T15:30:57.159Z,99896.75
2022-10-11T15:33:24.929Z,99889.91
2022-10-11T15:35:52.032Z,99892.72
2022-10-11T15:38:20.408Z,99892.81
2022-10-11T15:40:47.896Z,99887.66
2022-10-11T15:43:15.402Z,99889.50
2022-10-11T15:45:42.889Z,99891.41
2022-10-11T15:48:19.164Z,99887.19
2022-10-11T15:50:46.224Z,99885.56
2022-10-11T15:53:14.522Z,99892.72
2022-10-11T15:55:44.901Z,99887.59
2022-10-11T15:58:16.153Z,99885.97
2022-10-11T16:00:44.582Z,99888.75
2022-10-11T16:03:15.192Z,99888.97
2022-10-11T16:05:42.238Z,99881.19
2022-10-11T16:08:09.979Z,99885.72
2022-10-11T16:10:37.575Z,99886.72
2022-10-11T16:13:04.862Z,99886.91
2022-10-11T16:15:31.942Z,99890.56
2022-10-11T16:17:59.024Z,99888.13
2022-10-11T16:20:26.150Z,99892.66
2022-10-11T16:22:54.382Z,99891.81
2022-10-11T16:25:21.905Z,99891.84
2022-10-11T16:27:49.169Z,99894.56
2022-10-11T16:30:17.711Z,99888.50
2022-10-11T16:32:45.630Z,99886.84
2022-10-11T16:35:14.076Z,99890.41
2022-10-11T16:37:41.002Z,99886.16
2022-10-11T16:40:08.787Z,99882.81
2022-10-11T16:42:36.158Z,99883.75
2022-10-11T16:45:03.953Z,99882.06
2022-10-11T16:47:31.669Z,99880.28
2022-10-11T16:49:59.403Z,99878.53
2022-10-11T16:52:26.394Z,99878.63
2022-10-11T16:54:53.380Z,99884.03
2022-10-11T16:57:20.457Z,99889.34
2022-10-11T16:59:47.493Z,99878.84
2022-10-11T17:02:16.104Z,99881.53
2022-10-11T17:04:43.130Z,99873.78
2022-10-11T17:07:13.085Z,99867.69
2022-10-11T17:09:44.313Z,99870.16
2022-10-11T17:12:13.259Z,99863.00
2022-10-11T17:14:40.936Z,99869.97
2022-10-11T17:17:09.096Z,99863.63
2022-10-11T17:19:41.349Z,99859.22
2022-10-11T17:22:12.132Z,99861.09
2022-10-11T17:24:40.737Z,99865.56
2022-10-11T17:27:07.980Z,99866.50
2022-10-11T17:29:35.005Z,99863.13
2022-10-11T17:32:02.081Z,99867.56
2022-10-11T17:34:29.106Z,99858.88
2022-10-11T17:36:56.145Z,99864.19
2022-10-11T17:39:24.075Z,99854.69
2022-10-11T17:41:51.086Z,99846.06
2022-10-11T17:44:18.631Z,99843.53
2022-10-11T17:46:46.313Z,99838.28
2022-10-11T17:49:13.567Z,99848.91
2022-10-11T17:51:40.946Z,99845.53
2022-10-11T17:54:12.450Z,99848.19
2022-10-11T17:56:40.502Z,99843.06
2022-10-11T17:59:08.233Z,99841.38
2022-10-11T18:01:36.027Z,99844.00
2022-10-11T18:04:04.538Z,99846.69
2022-10-11T18:06:33.101Z,99842.38
2022-10-11T18:09:00.998Z,99841.56
2022-10-11T18:11:28.652Z,99841.66
2022-10-11T18:13:55.833Z,99842.72
2022-10-11T18:16:24.752Z,99842.81
2022-10-11T18:18:51.870Z,99844.59
2022-10-11T18:21:19.667Z,99844.63
2022-10-11T18:23:46.826Z,99838.56
2022-10-11T18:26:28.018Z,99842.06
2022-10-11T18:28:57.650Z,99837.75
2022-10-11T18:31:26.029Z,99836.97
2022-10-11T18:33:53.634Z,99833.53
2022-10-11T18:36:23.341Z,99833.63
2022-10-11T18:38:53.125Z,99833.63
2022-10-11T18:41:20.824Z,99831.03
2022-10-11T18:43:49.151Z,99828.34
2022-10-11T18:46:16.197Z,99834.38
2022-10-11T18:48:44.289Z,99821.22
2022-10-11T18:51:16.017Z,99826.56
2022-10-11T18:53:43.112Z,99824.91
2022-10-11T18:56:11.132Z,99818.91
2022-10-11T18:58:39.084Z,99814.66
2022-10-11T19:01:10.411Z,99816.53
2022-10-11T19:03:37.564Z,99814.94
2022-10-11T19:06:17.802Z,99813.31
2022-10-11T19:08:46.151Z,99810.69
2022-10-11T19:11:14.427Z,99813.41
2022-10-11T19:13:42.179Z,99811.69
2022-10-11T19:16:10.801Z,99800.41
2022-10-11T19:18:43.167Z,99804.75
2022-10-11T19:21:12.723Z,99799.59
2022-10-11T19:23:41.080Z,99803.13
2022-10-11T19:26:09.490Z,99799.75
2022-10-11T19:28:36.719Z,99798.16
2022-10-11T19:31:08.654Z,99799.19
2022-10-11T19:33:36.398Z,99799.28
2022-10-11T19:36:04.775Z,99804.63
2022-10-11T19:38:32.667Z,99800.38
2022-10-11T19:41:04.315Z,99797.88
2022-10-11T19:43:31.796Z,99797.03
2022-10-11T19:46:02.880Z,99804.97
2022-10-11T19:48:30.512Z,99805.91
2022-10-11T19:51:06.687Z,99804.22
2022-10-11T19:53:33.989Z,99805.16
2022-10-11T19:56:05.136Z,99807.78
2022-10-11T19:58:32.119Z,99809.56
2022-10-11T20:01:08.299Z,99805.22
2022-10-11T20:03:35.641Z,99800.94
2022-10-11T20:06:03.689Z,99801.88
2022-10-11T20:08:31.486Z,99800.22
2022-10-11T20:10:59.601Z,99798.56
2022-10-11T20:13:31.106Z,99800.34
2022-10-11T20:16:04.633Z,99794.25
2022-10-11T20:18:31.656Z,99794.41
2022-10-11T20:21:00.147Z,99797.97
2022-10-11T20:23:27.853Z,99785.00
2022-10-11T20:26:18.073Z,99785.94
2022-10-11T20:28:45.314Z,99687.50
2022-10-11T20:31:12.338Z,99786.03
2022-10-11T20:33:39.429Z,99782.56
2022-10-11T20:36:10.862Z,99782.56
2022-10-11T20:38:39.489Z,99781.69
2022-10-11T20:41:11.029Z,99781.63
2022-10-11T20:43:38.450Z,99788.69
2022-10-11T20:46:07.463Z,99784.34
2022-10-11T20:48:35.465Z,99781.81
2022-10-11T20:51:02.840Z,99791.47
2022-10-11T20:53:29.977Z,99780.19
2022-10-11T20:55:57.161Z,99783.72
2022-10-11T20:58:24.329Z,99780.25
2022-10-11T21:00:51.532Z,99776.81
2022-10-11T21:03:18.839Z,99777.66
2022-10-11T21:05:45.857Z,99775.16
2022-10-11T21:08:12.837Z,99770.03
2022-10-11T21:10:39.903Z,99770.94
2022-10-11T21:13:06.857Z,99776.19
2022-10-11T21:15:33.942Z,99772.78
2022-10-11T21:18:00.941Z,99767.56
2022-10-11T21:20:28.145Z,99759.69
2022-10-11T21:22:55.306Z,99764.16
2022-10-11T21:25:22.280Z,99761.53
2022-10-11T21:27:49.281Z,99760.69
2022-10-11T21:30:16.761Z,99758.13
2022-10-11T21:32:43.812Z,99767.78
2022-10-11T21:35:10.821Z,99769.63
2022-10-11T21:37:37.816Z,99767.00
2022-10-11T21:40:05.065Z,99767.00
2022-10-11T21:42:32.833Z,99769.63
2022-10-11T21:45:00.078Z,99764.31
2022-10-11T21:47:27.161Z,99758.22
2022-10-11T21:49:54.174Z,99756.44
2022-10-11T21:52:21.182Z,99760.84
2022-10-11T21:54:48.181Z,99760.06
2022-10-11T21:57:15.198Z,99756.66
2022-10-11T21:59:42.164Z,99755.88
2022-10-11T22:02:09.199Z,99752.38
2022-10-11T22:04:36.434Z,99756.69
2022-10-11T22:07:03.601Z,99750.63
2022-10-11T22:09:35.038Z,99754.19
2022-10-11T22:12:02.807Z,99755.13
2022-10-11T22:14:30.088Z,99749.88
2022-10-11T22:16:57.380Z,99742.84
2022-10-11T22:19:24.499Z,99746.34
2022-10-11T22:21:51.588Z,99748.16
2022-10-11T22:24:18.588Z,99747.34
2022-10-11T22:26:45.595Z,99744.78
2022-10-11T22:29:12.558Z,99746.47
2022-10-11T22:31:39.636Z,99743.88
2022-10-11T22:34:06.741Z,99629.09
2022-10-11T22:36:34.038Z,99737.81
2022-10-11T22:39:01.262Z,99738.69
2022-10-11T22:41:28.288Z,99739.63
2022-10-11T22:43:55.330Z,99741.47
2022-10-11T22:46:22.317Z,99738.84
2022-10-11T22:48:49.382Z,99739.69
2022-10-11T22:51:16.390Z,99738.75
2022-10-11T22:53:43.525Z,99733.47
2022-10-11T22:56:11.343Z,99735.22
2022-10-11T22:58:38.330Z,99737.91
2022-10-11T23:01:12.547Z,99734.44
2022-10-11T23:03:40.066Z,99737.16
2022-10-11T23:06:07.388Z,99735.53
2022-10-11T23:08:34.443Z,99734.72
2022-10-11T23:11:05.538Z,99731.19
2022-10-11T23:13:32.631Z,99732.88
2022-10-11T23:15:59.729Z,99732.91
2022-10-11T23:18:26.771Z,99725.88
2022-10-11T23:20:53.806Z,99727.66
2022-10-11T23:23:20.824Z,99729.41
2022-10-11T23:25:47.799Z,99735.50
2022-10-11T23:28:14.865Z,99729.34
2022-10-11T23:30:41.910Z,99719.78
2022-10-11T23:33:09.056Z,99725.03
2022-10-11T23:35:36.060Z,99721.63
2022-10-11T23:38:03.000Z,99714.63
2022-10-11T23:40:30.132Z,99714.59
2022-10-11T23:42:57.213Z,99718.09
2022-10-11T23:45:24.180Z,99719.84
2022-10-11T23:47:51.232Z,99716.34
2022-10-11T23:50:18.433Z,99717.25
2022-10-11T23:52:45.553Z,99718.16
2022-10-11T23:55:12.590Z,99715.63
2022-10-11T23:57:39.973Z,99720.06
